Time;durP1;ratioP1;P1;durP2;ratioP2;P2;SDS_P1;SDS_P2;PMS_P1;PMS_P2;Temp;Humidity;BMP_temperature;BMP_pressure;BME280_temperature;BME280_humidity;BME280_pressure;Samples;Min_cycle;Max_cycle;Signal;HPM_P1;HPM_P2
2024/01/26 00:01:13;;;;;;;;;;;;;;;;;;5029747;28;19913;-83
2024/01/26 00:03:39;;;;;;;;;;;;;;;;;;5029085;28;19919;-83
2024/01/26 00:06:05;;;;;;;;;;;;;;;;;;5028918;28;20397;-83
2024/01/26 00:08:31;;;;;;;;;;;;;;;;;;5029962;28;20220;-83
2024/01/26 00:10:57;;;;;;;;;;;;;;;;;;5030314;28;20372;-83
2024/01/26 00:13:23;;;;;;;;;;;;;;;;;;5030236;28;20372;-83
2024/01/26 00:15:50;;;;;;;;;;;;;;;;;;5029797;28;19909;-83
2024/01/26 00:18:16;;;;;;;;;;;;;;;;;;5030570;28;19964;-83
2024/01/26 00:20:41;;;;;;;;;;;;;;;;;;5029575;28;19960;-84
2024/01/26 00:23:07;;;;;;;;;;;;;;;;;;5029953;28;20115;-83
2024/01/26 00:25:33;;;;;;;;;;;;;;;;;;5029288;28;19920;-83
2024/01/26 00:27:59;;;;;;;;;;;;;;;;;;5027149;28;19936;-83
2024/01/26 00:30:25;;;;;;;;;;;;;;;;;;5029370;28;19917;-83
2024/01/26 00:32:51;;;;;;;;;;;;;;;;;;5029279;28;19910;-82
2024/01/26 00:35:17;;;;;;;;;;;;;;;;;;5028745;28;19920;-83
2024/01/26 00:37:43;;;;;;;;;;;;;;;;;;5027724;28;20311;-82
2024/01/26 00:40:09;;;;;;;;;;;;;;;;;;5028707;28;19921;-83
2024/01/26 00:42:35;;;;;;;;;;;;;;;;;;5028960;28;20386;-83
2024/01/26 00:45:01;;;;;;;;;;;;;;;;;;5027598;28;20339;-83
2024/01/26 00:47:26;;;;;;;;;;;;;;;;;;5028811;28;19928;-83
2024/01/26 00:49:52;;;;;;;;;;;;;;;;;;5028904;28;19915;-83
2024/01/26 00:52:18;;;;;;;;;;;;;;;;;;5028608;28;19917;-83
2024/01/26 00:54:44;;;;;;;;;;;;;;;;;;5028752;28;19995;-83
2024/01/26 00:57:10;;;;;;;;;;;;;;;;;;5027669;28;20380;-83
2024/01/26 00:59:36;;;;;;;;;;;;;;;;;;5028115;28;20323;-83
2024/01/26 01:02:02;;;;;;;;;;;;;;;;;;5028776;28;19964;-83
2024/01/26 01:04:30;;;;;;;;;;;;;;;;;;5028200;28;20342;-83
2024/01/26 01:06:59;;;;;;;;;;;;;;;;;;5028659;28;19924;-82
2024/01/26 01:09:25;;;;;;;;;;;;;;;;;;5027673;28;20391;-82
2024/01/26 01:11:52;;;;;;;;;;;;;;;;;;5028546;28;19909;-83
2024/01/26 01:14:18;;;;;;;;;;;;;;;;;;5031144;28;19920;-82
2024/01/26 01:16:45;;;;;;;;;;;;;;;;;;5028812;28;20420;-83
2024/01/26 01:19:11;;;;;;;;;;;;;;;;;;5027792;28;19992;-83
2024/01/26 01:21:37;;;;;;;;;;;;;;;;;;5029238;28;20047;-83
2024/01/26 01:24:02;;;;;;;;;;;;;;;;;;5028363;28;19920;-83
2024/01/26 01:26:28;;;;;;;;;;;;;;;;;;5028492;28;20219;-83
2024/01/26 01:28:54;;;;;;;;;;;;;;;;;;5029253;28;20474;-83
2024/01/26 01:31:20;;;;;;;;;;;;;;;;;;5028512;28;19931;-83
2024/01/26 01:33:46;;;;;;;;;;;;;;;;;;5028517;28;19968;-83
2024/01/26 01:36:12;;;;;;;;;;;;;;;;;;5029707;28;19920;-83
2024/01/26 01:38:37;;;;;;;;;;;;;;;;;;5028262;28;19920;-83
2024/01/26 01:41:03;;;;;;;;;;;;;;;;;;5038629;28;20011;-82
2024/01/26 01:43:29;;;;;;;;;;;;;;;;;;5027975;28;19921;-84
2024/01/26 01:45:55;;;;;;;;;;;;;;;;;;5028443;28;20474;-83
2024/01/26 01:48:21;;;;;;;;;;;;;;;;;;5027911;28;19927;-83
2024/01/26 01:50:47;;;;;;;;;;;;;;;;;;5027857;28;19936;-82
2024/01/26 01:53:13;;;;;;;;;;;;;;;;;;5028120;28;20481;-83
2024/01/26 01:55:39;;;;;;;;;;;;;;;;;;5028485;28;20383;-83
2024/01/26 01:58:04;;;;;;;;;;;;;;;;;;5027855;28;19991;-82
2024/01/26 02:00:32;;;;;;;;;;;;;;;;;;5027848;28;19921;-83
2024/01/26 02:02:58;;;;;;;;;;;;;;;;;;5028206;28;19910;-83
2024/01/26 02:05:24;;;;;;;;;;;;;;;;;;5027878;28;19924;-83
2024/01/26 02:07:50;;;;;;;;;;;;;;;;;;5029637;28;20020;-83
2024/01/26 02:10:15;;;;;;;;;;;;;;;;;;5027121;28;19913;-82
2024/01/26 02:12:41;;;;;;;;;;;;;;;;;;5027538;28;20106;-83
2024/01/26 02:15:08;;;;;;;;;;;;;;;;;;5027913;28;19958;-83
2024/01/26 02:17:34;;;;;;;;;;;;;;;;;;5028245;28;19917;-82
2024/01/26 02:20:00;;;;;;;;;;;;;;;;;;5028315;28;19920;-83
2024/01/26 02:22:26;;;;;;;;;;;;;;;;;;5030329;28;19917;-83
2024/01/26 02:24:52;;;;;;;;;;;;;;;;;;5031600;28;19917;-84
2024/01/26 02:27:18;;;;;;;;;;;;;;;;;;5031647;28;19928;-83
2024/01/26 02:29:44;;;;;;;;;;;;;;;;;;5032193;28;19913;-83
2024/01/26 02:32:10;;;;;;;;;;;;;;;;;;5031135;28;20216;-83
2024/01/26 02:34:36;;;;;;;;;;;;;;;;;;5031132;28;20004;-83
2024/01/26 02:37:02;;;;;;;;;;;;;;;;;;5031927;28;20395;-82
2024/01/26 02:39:28;;;;;;;;;;;;;;;;;;5030474;28;19921;-83
2024/01/26 02:41:54;;;;;;;;;;;;;;;;;;5030871;28;19956;-83
2024/01/26 02:44:20;;;;;;;;;;;;;;;;;;5031218;28;19978;-82
2024/01/26 02:46:47;;;;;;;;;;;;;;;;;;5030932;28;19925;-83
2024/01/26 02:49:12;;;;;;;;;;;;;;;;;;5030920;28;19917;-83
2024/01/26 02:51:38;;;;;;;;;;;;;;;;;;5030874;28;19913;-83
2024/01/26 02:54:04;;;;;;;;;;;;;;;;;;5031175;28;19958;-83
2024/01/26 02:56:30;;;;;;;;;;;;;;;;;;5030329;28;19917;-83
2024/01/26 02:58:56;;;;;;;;;;;;;;;;;;5031108;28;20272;-83
2024/01/26 03:01:22;;;;;;;;;;;;;;;;;;5030798;28;19917;-84
2024/01/26 03:03:48;;;;;;;;;;;;;;;;;;5030637;28;20295;-84
2024/01/26 03:06:14;;;;;;;;;;;;;;;;;;5030966;28;19917;-83
2024/01/26 03:08:39;;;;;;;;;;;;;;;;;;5031202;28;20002;-84
2024/01/26 03:11:05;;;;;;;;;;;;;;;;;;5030774;28;20009;-83
2024/01/26 03:13:31;;;;;;;;;;;;;;;;;;5029956;28;19917;-83
2024/01/26 03:15:57;;;;;;;;;;;;;;;;;;5029859;28;19913;-84
2024/01/26 03:18:23;;;;;;;;;;;;;;;;;;5030312;28;19919;-83
2024/01/26 03:20:49;;;;;;;;;;;;;;;;;;5030012;28;19937;-84
2024/01/26 03:23:14;;;;;;;;;;;;;;;;;;5030973;28;19967;-83
2024/01/26 03:25:40;;;;;;;;;;;;;;;;;;5030780;28;20371;-84
2024/01/26 03:28:06;;;;;;;;;;;;;;;;;;5030096;28;20352;-84
2024/01/26 03:30:32;;;;;;;;;;;;;;;;;;5029896;28;20302;-83
2024/01/26 03:32:59;;;;;;;;;;;;;;;;;;5030463;28;19914;-83
2024/01/26 03:35:24;;;;;;;;;;;;;;;;;;5030241;28;19914;-83
2024/01/26 03:37:50;;;;;;;;;;;;;;;;;;5031022;28;19920;-84
2024/01/26 03:40:16;;;;;;;;;;;;;;;;;;5031922;28;20007;-84
2024/01/26 03:42:42;;;;;;;;;;;;;;;;;;5029101;28;19928;-83
2024/01/26 03:45:08;;;;;;;;;;;;;;;;;;5029811;28;19914;-83
2024/01/26 03:47:33;;;;;;;;;;;;;;;;;;5029859;28;20362;-84
2024/01/26 03:49:59;;;;;;;;;;;;;;;;;;5032563;28;19913;-84
2024/01/26 03:52:25;;;;;;;;;;;;;;;;;;5030352;28;19913;-83
2024/01/26 03:54:51;;;;;;;;;;;;;;;;;;5030734;28;19924;-84
2024/01/26 03:57:17;;;;;;;;;;;;;;;;;;5029901;28;19913;-82
2024/01/26 03:59:43;;;;;;;;;;;;;;;;;;5030365;28;19949;-83
2024/01/26 04:02:09;;;;;;;;;;;;;;;;;;5029921;28;20371;-83
2024/01/26 04:04:34;;;;;;;;;;;;;;;;;;5029064;28;20278;-84
2024/01/26 04:07:00;;;;;;;;;;;;;;;;;;5027772;28;20521;-84
2024/01/26 04:09:26;;;;;;;;;;;;;;;;;;5037047;28;20358;-84
2024/01/26 04:11:52;;;;;;;;;;;;;;;;;;5036008;28;19921;-83
2024/01/26 04:14:18;;;;;;;;;;;;;;;;;;5028940;28;19960;-84
2024/01/26 04:16:44;;;;;;;;;;;;;;;;;;5033175;28;20312;-84
2024/01/26 04:19:10;;;;;;;;;;;;;;;;;;5029321;28;20005;-84
2024/01/26 04:21:35;;;;;;;;;;;;;;;;;;5029702;28;19917;-82
2024/01/26 04:24:01;;;;;;;;;;;;;;;;;;5030391;28;20326;-83
2024/01/26 04:26:27;;;;;;;;;;;;;;;;;;5028188;28;19913;-83
2024/01/26 04:28:53;;;;;;;;;;;;;;;;;;5022481;28;19914;-83
2024/01/26 04:31:22;;;;;;;;;;;;;;;;;;5021930;28;19958;-83
2024/01/26 04:33:48;;;;;;;;;;;;;;;;;;5030244;28;19912;-83
2024/01/26 04:36:13;;;;;;;;;;;;;;;;;;5029083;28;19966;-83
2024/01/26 04:38:39;;;;;;;;;;;;;;;;;;5029489;28;19924;-83
2024/01/26 04:41:05;;;;;;;;;;;;;;;;;;5032419;28;19925;-83
2024/01/26 04:43:31;;;;;;;;;;;;;;;;;;5027964;28;20018;-84
2024/01/26 04:45:57;;;;;;;;;;;;;;;;;;5029647;28;19913;-82
2024/01/26 04:48:23;;;;;;;;;;;;;;;;;;5029297;28;20082;-84
2024/01/26 04:50:48;;;;;;;;;;;;;;;;;;5029624;28;19917;-83
2024/01/26 04:53:18;;;;;;;;;;;;;;;;;;5027957;28;20339;-83
2024/01/26 04:55:44;;;;;;;;;;;;;;;;;;5027018;28;19931;-83
2024/01/26 04:58:09;;;;;;;;;;;;;;;;;;5027806;28;19912;-83
2024/01/26 05:00:35;;;;;;;;;;;;;;;;;;5029796;28;20371;-83
2024/01/26 05:03:01;;;;;;;;;;;;;;;;;;5030266;28;20379;-82
2024/01/26 05:05:28;;;;;;;;;;;;;;;;;;5028826;28;19920;-83
2024/01/26 05:07:54;;;;;;;;;;;;;;;;;;5028596;28;19924;-82
2024/01/26 05:10:20;;;;;;;;;;;;;;;;;;5029199;28;19913;-83
2024/01/26 05:12:45;;;;;;;;;;;;;;;;;;5029373;28;19916;-83
2024/01/26 05:15:11;;;;;;;;;;;;;;;;;;5028877;28;20570;-82
2024/01/26 05:17:37;;;;;;;;;;;;;;;;;;5032928;28;19917;-83
2024/01/26 05:20:04;;;;;;;;;;;;;;;;;;5029330;28;19917;-83
2024/01/26 05:22:30;;;;;;;;;;;;;;;;;;5028142;28;19914;-83
2024/01/26 05:24:56;;;;;;;;;;;;;;;;;;5027529;28;19924;-83
2024/01/26 05:27:22;;;;;;;;;;;;;;;;;;5029017;28;20019;-83
2024/01/26 05:29:48;;;;;;;;;;;;;;;;;;5028625;28;20360;-83
2024/01/26 05:32:14;;;;;;;;;;;;;;;;;;5028326;28;19913;-83
2024/01/26 05:34:40;;;;;;;;;;;;;;;;;;5028031;28;20384;-83
2024/01/26 05:37:06;;;;;;;;;;;;;;;;;;5028783;28;20010;-83
2024/01/26 05:39:32;;;;;;;;;;;;;;;;;;5026643;28;20383;-85
2024/01/26 05:41:58;;;;;;;;;;;;;;;;;;5030512;28;20043;-86
2024/01/26 05:44:24;;;;;;;;;;;;;;;;;;5030504;28;20391;-86
2024/01/26 05:46:49;;;;;;;;;;;;;;;;;;5031119;28;20334;-86
2024/01/26 05:49:15;;;;;;;;;;;;;;;;;;5029517;28;19913;-87
2024/01/26 05:51:41;;;;;;;;;;;;;;;;;;5029565;28;19963;-86
2024/01/26 05:54:07;;;;;;;;;;;;;;;;;;5030971;28;19913;-86
2024/01/26 05:56:33;;;;;;;;;;;;;;;;;;5033053;28;19936;-85
2024/01/26 05:58:59;;;;;;;;;;;;;;;;;;5033510;28;19917;-83
2024/01/26 06:01:24;;;;;;;;;;;;;;;;;;5033915;28;19921;-83
2024/01/26 06:03:54;;;;;;;;;;;;;;;;;;5031686;28;20610;-83
2024/01/26 06:06:20;;;;;;;;;;;;;;;;;;5018882;28;19913;-83
2024/01/26 06:08:45;;;;;;;;;;;;;;;;;;5028116;28;19944;-83
2024/01/26 06:11:11;;;;;;;;;;;;;;;;;;5028464;28;20000;-82
2024/01/26 06:13:37;;;;;;;;;;;;;;;;;;5029086;28;19917;-84
2024/01/26 06:16:03;;;;;;;;;;;;;;;;;;5032137;28;19913;-83
2024/01/26 06:18:29;;;;;;;;;;;;;;;;;;5032902;28;19917;-82
2024/01/26 06:20:55;;;;;;;;;;;;;;;;;;5041074;28;19909;-86
2024/01/26 06:23:21;;;;;;;;;;;;;;;;;;5031338;28;19924;-88
2024/01/26 06:25:47;;;;;;;;;;;;;;;;;;5030666;28;19917;-82
2024/01/26 06:28:13;;;;;;;;;;;;;;;;;;5030989;28;19964;-84
2024/01/26 06:30:39;;;;;;;;;;;;;;;;;;5032256;28;19960;-90
2024/01/26 06:33:05;;;;;;;;;;;;;;;;;;5031993;28;19948;-84
2024/01/26 06:35:30;;;;;;;;;;;;;;;;;;5029977;28;19996;-83
2024/01/26 06:37:57;;;;;;;;;;;;;;;;;;5028287;28;19991;-82
2024/01/26 06:40:22;;;;;;;;;;;;;;;;;;5026680;28;19925;-83
2024/01/26 06:42:48;;;;;;;;;;;;;;;;;;5030904;28;19916;-82
2024/01/26 06:45:14;;;;;;;;;;;;;;;;;;5029365;28;20403;-83
2024/01/26 06:47:40;;;;;;;;;;;;;;;;;;5031628;28;20338;-81
2024/01/26 06:50:06;;;;;;;;;;;;;;;;;;5031436;28;19940;-81
2024/01/26 06:52:32;;;;;;;;;;;;;;;;;;5030812;28;19947;-81
2024/01/26 06:54:58;;;;;;;;;;;;;;;;;;5030404;28;19925;-81
2024/01/26 06:57:23;;;;;;;;;;;;;;;;;;5031209;28;19917;-87
2024/01/26 06:59:49;;;;;;;;;;;;;;;;;;5031549;28;20338;-87
2024/01/26 07:02:15;;;;;;;;;;;;;;;;;;5032062;28;19945;-85
2024/01/26 07:04:41;;;;;;;;;;;;;;;;;;5030977;28;19913;-84
2024/01/26 07:07:07;;;;;;;;;;;;;;;;;;5030406;28;19928;-84
2024/01/26 07:09:33;;;;;;;;;;;;;;;;;;5031578;28;19909;-85
2024/01/26 07:11:59;;;;;;;;;;;;;;;;;;5032290;28;20324;-80
2024/01/26 07:14:24;;;;;;;;;;;;;;;;;;5031546;28;19917;-81
2024/01/26 07:16:50;;;;;;;;;;;;;;;;;;5030083;28;20363;-81
2024/01/26 07:19:16;;;;;;;;;;;;;;;;;;5033076;28;20375;-81
2024/01/26 07:21:42;;;;;;;;;;;;;;;;;;5030502;28;20375;-81
2024/01/26 07:24:08;;;;;;;;;;;;;;;;;;5030905;28;19909;-80
2024/01/26 07:26:34;;;;;;;;;;;;;;;;;;5030083;28;19963;-80
2024/01/26 07:29:00;;;;;;;;;;;;;;;;;;5026929;28;19913;-79
2024/01/26 07:31:25;;;;;;;;;;;;;;;;;;5027930;28;19917;-80
2024/01/26 07:33:51;;;;;;;;;;;;;;;;;;5029929;28;19983;-79
2024/01/26 07:36:17;;;;;;;;;;;;;;;;;;5030513;28;19916;-79
2024/01/26 07:38:43;;;;;;;;;;;;;;;;;;5030335;28;20127;-79
2024/01/26 07:41:09;;;;;;;;;;;;;;;;;;5043133;28;19999;-80
2024/01/26 07:43:35;;;;;;;;;;;;;;;;;;5030485;28;20436;-79
2024/01/26 07:46:01;;;;;;;;;;;;;;;;;;5029968;28;20458;-79
2024/01/26 07:48:27;;;;;;;;;;;;;;;;;;5030140;28;20377;-80
2024/01/26 07:50:52;;;;;;;;;;;;;;;;;;5030207;28;20011;-79
2024/01/26 07:53:18;;;;;;;;;;;;;;;;;;5029939;28;19916;-80
2024/01/26 07:55:44;;;;;;;;;;;;;;;;;;5030340;28;20016;-79
2024/01/26 07:58:10;;;;;;;;;;;;;;;;;;5029960;28;20386;-79
2024/01/26 08:00:36;;;;;;;;;;;;;;;;;;5029786;28;20113;-79
2024/01/26 08:03:03;;;;;;;;;;;;;;;;;;5030509;28;20306;-79
2024/01/26 08:05:29;;;;;;;;;;;;;;;;;;5029573;28;19916;-79
2024/01/26 08:07:55;;;;;;;;;;;;;;;;;;5029794;28;19913;-80
2024/01/26 08:10:20;;;;;;;;;;;;;;;;;;5030339;28;19936;-80
2024/01/26 08:12:46;;;;;;;;;;;;;;;;;;5029433;28;20291;-79
2024/01/26 08:15:12;;;;;;;;;;;;;;;;;;5029729;28;19936;-79
2024/01/26 08:17:38;;;;;;;;;;;;;;;;;;5032868;28;19909;-80
2024/01/26 08:20:05;;;;;;;;;;;;;;;;;;5036481;28;19909;-80
2024/01/26 08:22:31;;;;;;;;;;;;;;;;;;5029330;28;19919;-80
2024/01/26 08:25:00;;;;;;;;;;;;;;;;;;5029351;28;20362;-80
2024/01/26 08:27:26;;;;;;;;;;;;;;;;;;5029597;28;19913;-80
2024/01/26 08:29:52;;;;;;;;;;;;;;;;;;5029897;28;19913;-80
2024/01/26 08:32:18;;;;;;;;;;;;;;;;;;5029406;28;19914;-79
2024/01/26 08:34:43;;;;;;;;;;;;;;;;;;5029171;28;19963;-80
2024/01/26 08:37:09;;;;;;;;;;;;;;;;;;5029289;28;19910;-80
2024/01/26 08:39:35;;;;;;;;;;;;;;;;;;5028535;28;20303;-80
2024/01/26 08:42:02;;;;;;;;;;;;;;;;;;5025391;28;19917;-79
2024/01/26 08:44:30;;;;;;;;;;;;;;;;;;5029061;28;19948;-79
2024/01/26 08:46:56;;;;;;;;;;;;;;;;;;5028805;28;20000;-80
2024/01/26 08:49:21;;;;;;;;;;;;;;;;;;5029419;28;20004;-79
2024/01/26 08:51:47;;;;;;;;;;;;;;;;;;5029159;28;19909;-79
2024/01/26 08:54:13;;;;;;;;;;;;;;;;;;5028879;28;19970;-80
2024/01/26 08:56:40;;;;;;;;;;;;;;;;;;5028954;28;19913;-79
2024/01/26 08:59:07;;;;;;;;;;;;;;;;;;5029136;28;20341;-79
2024/01/26 09:01:34;;;;;;;;;;;;;;;;;;5028851;28;19915;-79
2024/01/26 09:04:00;;;;;;;;;;;;;;;;;;5029043;28;19916;-79
2024/01/26 09:06:26;;;;;;;;;;;;;;;;;;5029056;28;19910;-80
2024/01/26 09:08:52;;;;;;;;;;;;;;;;;;5029242;28;20062;-79
2024/01/26 09:11:17;;;;;;;;;;;;;;;;;;5028598;28;19913;-79
2024/01/26 09:13:43;;;;;;;;;;;;;;;;;;5028706;28;20439;-79
2024/01/26 09:16:09;;;;;;;;;;;;;;;;;;5028483;28;20322;-79
2024/01/26 09:18:35;;;;;;;;;;;;;;;;;;5030332;28;19916;-80
2024/01/26 09:21:01;;;;;;;;;;;;;;;;;;5028553;28;20008;-79
2024/01/26 09:23:27;;;;;;;;;;;;;;;;;;5028563;28;19967;-80
2024/01/26 09:25:53;;;;;;;;;;;;;;;;;;5028630;28;19913;-80
2024/01/26 09:28:19;;;;;;;;;;;;;;;;;;5028687;28;19917;-80
2024/01/26 09:30:44;;;;;;;;;;;;;;;;;;5028321;28;20268;-80
2024/01/26 09:33:10;;;;;;;;;;;;;;;;;;5028719;28;20000;-79
2024/01/26 09:35:36;;;;;;;;;;;;;;;;;;5028004;28;19915;-79
2024/01/26 09:38:02;;;;;;;;;;;;;;;;;;5028416;28;19956;-80
2024/01/26 09:40:28;;;;;;;;;;;;;;;;;;5034979;28;20026;-79
2024/01/26 09:42:54;;;;;;;;;;;;;;;;;;5034509;28;19952;-80
2024/01/26 09:45:22;;;;;;;;;;;;;;;;;;5028954;28;19916;-80
2024/01/26 09:47:47;;;;;;;;;;;;;;;;;;5026339;28;19921;-80
2024/01/26 09:50:13;;;;;;;;;;;;;;;;;;5027870;28;19924;-80
2024/01/26 09:52:39;;;;;;;;;;;;;;;;;;5028310;28;19913;-80
2024/01/26 09:55:05;;;;;;;;;;;;;;;;;;5028440;28;20334;-80
2024/01/26 09:57:32;;;;;;;;;;;;;;;;;;5028160;28;19909;-80
2024/01/26 09:59:58;;;;;;;;;;;;;;;;;;5028318;28;19917;-81
2024/01/26 10:02:24;;;;;;;;;;;;;;;;;;5028172;28;20000;-80
2024/01/26 10:04:50;;;;;;;;;;;;;;;;;;5027863;28;19996;-80
2024/01/26 10:07:15;;;;;;;;;;;;;;;;;;5028158;28;19913;-82
2024/01/26 10:09:42;;;;;;;;;;;;;;;;;;5027933;28;20291;-81
2024/01/26 10:12:08;;;;;;;;;;;;;;;;;;5028058;28;19970;-80
2024/01/26 10:14:34;;;;;;;;;;;;;;;;;;5028202;28;19916;-80
2024/01/26 10:17:00;;;;;;;;;;;;;;;;;;5028320;28;19913;-80
2024/01/26 10:19:26;;;;;;;;;;;;;;;;;;5028601;28;19932;-80
2024/01/26 10:21:52;;;;;;;;;;;;;;;;;;5027860;28;20331;-80
2024/01/26 10:24:19;;;;;;;;;;;;;;;;;;5028203;28;20019;-80
2024/01/26 10:26:45;;;;;;;;;;;;;;;;;;5027728;28;19990;-80
2024/01/26 10:29:12;;;;;;;;;;;;;;;;;;5027894;28;19913;-80
2024/01/26 10:31:40;;;;;;;;;;;;;;;;;;5028826;28;19909;-80
2024/01/26 10:34:06;;;;;;;;;;;;;;;;;;5039930;28;19913;-80
2024/01/26 10:36:32;;;;;;;;;;;;;;;;;;5027783;28;19920;-80
2024/01/26 10:38:57;;;;;;;;;;;;;;;;;;5027766;28;19959;-80
2024/01/26 10:41:23;;;;;;;;;;;;;;;;;;5041107;28;19929;-80
2024/01/26 10:43:52;;;;;;;;;;;;;;;;;;5030389;28;19920;-80
2024/01/26 10:46:18;;;;;;;;;;;;;;;;;;5031449;28;20286;-80
2024/01/26 10:48:44;;;;;;;;;;;;;;;;;;5031267;28;20296;-81
2024/01/26 10:51:10;;;;;;;;;;;;;;;;;;5031018;28;20412;-80
2024/01/26 10:53:36;;;;;;;;;;;;;;;;;;5031080;28;20462;-80
2024/01/26 10:56:04;;;;;;;;;;;;;;;;;;5031372;28;20272;-80
2024/01/26 10:58:29;;;;;;;;;;;;;;;;;;5031255;28;19909;-80
2024/01/26 11:00:57;;;;;;;;;;;;;;;;;;5030860;28;19982;-81
2024/01/26 11:03:23;;;;;;;;;;;;;;;;;;5031120;28;19909;-81
2024/01/26 11:05:49;;;;;;;;;;;;;;;;;;5030907;28;19913;-81
2024/01/26 11:08:15;;;;;;;;;;;;;;;;;;5031175;28;19920;-80
2024/01/26 11:10:41;;;;;;;;;;;;;;;;;;5030931;28;19909;-80
2024/01/26 11:13:09;;;;;;;;;;;;;;;;;;5030929;28;19917;-80
2024/01/26 11:15:35;;;;;;;;;;;;;;;;;;5030721;28;19913;-80
2024/01/26 11:18:03;;;;;;;;;;;;;;;;;;5029315;28;20288;-81
2024/01/26 11:20:31;;;;;;;;;;;;;;;;;;5042904;28;19916;-80
2024/01/26 11:22:57;;;;;;;;;;;;;;;;;;5030625;28;20411;-80
2024/01/26 11:25:23;;;;;;;;;;;;;;;;;;5031159;28;19959;-80
2024/01/26 11:27:49;;;;;;;;;;;;;;;;;;5030306;28;19923;-80
2024/01/26 11:30:15;;;;;;;;;;;;;;;;;;5030307;28;19941;-80
2024/01/26 11:32:40;;;;;;;;;;;;;;;;;;5031383;28;19963;-80
2024/01/26 11:35:09;;;;;;;;;;;;;;;;;;5030646;28;19913;-80
2024/01/26 11:37:35;;;;;;;;;;;;;;;;;;5030267;28;19909;-80
2024/01/26 11:40:01;;;;;;;;;;;;;;;;;;5033767;28;20456;-80
2024/01/26 11:42:27;;;;;;;;;;;;;;;;;;5040447;28;20378;-80
2024/01/26 11:44:53;;;;;;;;;;;;;;;;;;5030034;28;20000;-80
2024/01/26 11:47:19;;;;;;;;;;;;;;;;;;5030379;28;20502;-80
2024/01/26 11:49:44;;;;;;;;;;;;;;;;;;5030374;28;20282;-80
2024/01/26 11:52:10;;;;;;;;;;;;;;;;;;5029992;28;20322;-80
2024/01/26 11:54:36;;;;;;;;;;;;;;;;;;5028639;28;19909;-80
2024/01/26 11:57:02;;;;;;;;;;;;;;;;;;5030221;28;19910;-80
2024/01/26 11:59:28;;;;;;;;;;;;;;;;;;5030059;28;19996;-80
2024/01/26 12:01:54;;;;;;;;;;;;;;;;;;5030093;28;19937;-80
2024/01/26 12:04:20;;;;;;;;;;;;;;;;;;5030262;28;19909;-80
2024/01/26 12:06:46;;;;;;;;;;;;;;;;;;5029723;28;20271;-80
2024/01/26 12:09:12;;;;;;;;;;;;;;;;;;5029776;28;19913;-80
2024/01/26 12:11:38;;;;;;;;;;;;;;;;;;5030134;28;19956;-80
2024/01/26 12:14:04;;;;;;;;;;;;;;;;;;5029761;28;19910;-80
2024/01/26 12:16:30;;;;;;;;;;;;;;;;;;5029465;28;19915;-79
2024/01/26 12:18:56;;;;;;;;;;;;;;;;;;5029568;28;19919;-79
2024/01/26 12:21:22;;;;;;;;;;;;;;;;;;5032936;28;19920;-79
2024/01/26 12:23:47;;;;;;;;;;;;;;;;;;5029290;28;19913;-80
2024/01/26 12:26:15;;;;;;;;;;;;;;;;;;5029741;28;19917;-80
2024/01/26 12:28:41;;;;;;;;;;;;;;;;;;5029475;28;19921;-80
2024/01/26 12:31:07;;;;;;;;;;;;;;;;;;5029367;28;19913;-80
2024/01/26 12:33:33;;;;;;;;;;;;;;;;;;5030006;28;19919;-80
2024/01/26 12:36:00;;;;;;;;;;;;;;;;;;5029585;28;20378;-80
2024/01/26 12:38:28;;;;;;;;;;;;;;;;;;5029325;28;19965;-80
2024/01/26 12:40:54;;;;;;;;;;;;;;;;;;5039625;28;19920;-80
2024/01/26 12:43:20;;;;;;;;;;;;;;;;;;5031893;28;19916;-80
2024/01/26 12:45:46;;;;;;;;;;;;;;;;;;5029065;28;19909;-80
2024/01/26 12:48:12;;;;;;;;;;;;;;;;;;5029045;28;19932;-80
2024/01/26 12:50:38;;;;;;;;;;;;;;;;;;5029090;28;19909;-80
2024/01/26 12:53:03;;;;;;;;;;;;;;;;;;5029109;28;20232;-80
2024/01/26 12:55:29;;;;;;;;;;;;;;;;;;5027553;28;19913;-79
2024/01/26 12:57:55;;;;;;;;;;;;;;;;;;5027224;28;19921;-78
2024/01/26 13:00:21;;;;;;;;;;;;;;;;;;5029161;28;20431;-78
2024/01/26 13:02:47;;;;;;;;;;;;;;;;;;5028472;28;20051;-78
2024/01/26 13:05:13;;;;;;;;;;;;;;;;;;5028323;28;19913;-78
2024/01/26 13:07:39;;;;;;;;;;;;;;;;;;5028856;28;19920;-80
2024/01/26 13:10:05;;;;;;;;;;;;;;;;;;5028558;28;19913;-80
2024/01/26 13:12:30;;;;;;;;;;;;;;;;;;5028546;28;19990;-80
2024/01/26 13:14:56;;;;;;;;;;;;;;;;;;5028644;28;19909;-80
2024/01/26 13:17:22;;;;;;;;;;;;;;;;;;5028369;28;20034;-80
2024/01/26 13:19:48;;;;;;;;;;;;;;;;;;5028492;28;19909;-80
2024/01/26 13:22:14;;;;;;;;;;;;;;;;;;5042166;28;20580;-80
2024/01/26 13:24:40;;;;;;;;;;;;;;;;;;5028236;28;19955;-80
2024/01/26 13:27:06;;;;;;;;;;;;;;;;;;5028582;28;20363;-80
2024/01/26 13:29:33;;;;;;;;;;;;;;;;;;5028869;28;19913;-81
2024/01/26 13:31:59;;;;;;;;;;;;;;;;;;5028907;28;19913;-81
2024/01/26 13:34:25;;;;;;;;;;;;;;;;;;5028483;28;19910;-79
2024/01/26 13:36:53;;;;;;;;;;;;;;;;;;5028381;28;19913;-82
2024/01/26 13:39:19;;;;;;;;;;;;;;;;;;5028767;28;19913;-80
2024/01/26 13:41:45;;;;;;;;;;;;;;;;;;5041173;28;19967;-81
2024/01/26 13:44:11;;;;;;;;;;;;;;;;;;5028512;28;19992;-80
2024/01/26 13:46:37;;;;;;;;;;;;;;;;;;5028419;28;20004;-81
2024/01/26 13:49:03;;;;;;;;;;;;;;;;;;5028054;28;19921;-81
2024/01/26 13:51:29;;;;;;;;;;;;;;;;;;5027931;28;19974;-81
2024/01/26 13:53:55;;;;;;;;;;;;;;;;;;5028546;28;19913;-81
2024/01/26 13:56:20;;;;;;;;;;;;;;;;;;5028254;28;19953;-81
2024/01/26 13:58:46;;;;;;;;;;;;;;;;;;5027748;28;19913;-81
2024/01/26 14:01:12;;;;;;;;;;;;;;;;;;5028309;28;19917;-82
2024/01/26 14:03:51;;;;;;;;;;;;;;;;;;;;;
2024/01/26 14:06:20;;;;;;;;;;;;;;;;;;5027462;28;19913;-84
2024/01/26 14:11:36;;;;;;;;;;;;;;;;;;5015866;28;20364;-82
2024/01/26 14:14:02;;;;;;;;;;;;;;;;;;5027734;28;19909;-82
2024/01/26 14:16:36;;;;;;;;;;;;;;;;;;5027065;28;19910;-83
2024/01/26 14:19:02;;;;;;;;;;;;;;;;;;5030813;28;19913;-81
2024/01/26 14:21:28;;;;;;;;;;;;;;;;;;5035119;28;19915;-81
2024/01/26 14:23:54;;;;;;;;;;;;;;;;;;5032839;28;19916;-81
2024/01/26 14:26:20;;;;;;;;;;;;;;;;;;5031891;28;20343;-81
2024/01/26 14:28:47;;;;;;;;;;;;;;;;;;5031789;28;19913;-81
2024/01/26 14:31:12;;;;;;;;;;;;;;;;;;5031922;28;19967;-82
2024/01/26 14:33:38;;;;;;;;;;;;;;;;;;5044177;28;20375;-82
2024/01/26 14:36:04;;;;;;;;;;;;;;;;;;5031100;28;19917;-82
2024/01/26 14:38:30;;;;;;;;;;;;;;;;;;5031682;28;20315;-82
2024/01/26 14:40:56;;;;;;;;;;;;;;;;;;5042306;28;19921;-82
2024/01/26 14:43:22;;;;;;;;;;;;;;;;;;5034158;28;19920;-82
2024/01/26 14:45:48;;;;;;;;;;;;;;;;;;5031214;28;20387;-82
2024/01/26 14:48:14;;;;;;;;;;;;;;;;;;5031354;28;20298;-82
2024/01/26 14:50:40;;;;;;;;;;;;;;;;;;5031408;28;19924;-82
2024/01/26 14:53:05;;;;;;;;;;;;;;;;;;5031432;28;19960;-81
2024/01/26 14:55:31;;;;;;;;;;;;;;;;;;5031290;28;19913;-81
2024/01/26 14:57:57;;;;;;;;;;;;;;;;;;5031260;28;19909;-81
2024/01/26 15:00:24;;;;;;;;;;;;;;;;;;5031488;28;20351;-78
2024/01/26 15:02:50;;;;;;;;;;;;;;;;;;5030748;28;19909;-81
2024/01/26 15:05:17;;;;;;;;;;;;;;;;;;5030864;28;20331;-81
2024/01/26 15:07:43;;;;;;;;;;;;;;;;;;5022368;28;19921;-81
2024/01/26 15:10:10;;;;;;;;;;;;;;;;;;5024296;28;19976;-81
2024/01/26 15:12:36;;;;;;;;;;;;;;;;;;5030571;28;19909;-81
2024/01/26 15:15:02;;;;;;;;;;;;;;;;;;5030827;28;19910;-82
2024/01/26 15:17:28;;;;;;;;;;;;;;;;;;5030955;28;19936;-82
2024/01/26 15:19:53;;;;;;;;;;;;;;;;;;5030081;28;19967;-87
2024/01/26 15:22:19;;;;;;;;;;;;;;;;;;5021811;28;20004;-87
2024/01/26 15:24:45;;;;;;;;;;;;;;;;;;5030362;28;19946;-88
2024/01/26 15:27:11;;;;;;;;;;;;;;;;;;5030665;28;19975;-83
2024/01/26 15:29:37;;;;;;;;;;;;;;;;;;5029743;28;19940;-87
2024/01/26 15:32:03;;;;;;;;;;;;;;;;;;5030535;28;19923;-87
2024/01/26 15:34:29;;;;;;;;;;;;;;;;;;5030353;28;19956;-87
2024/01/26 15:36:56;;;;;;;;;;;;;;;;;;5029820;28;19913;-89
2024/01/26 15:39:22;;;;;;;;;;;;;;;;;;5030217;28;19913;-84
2024/01/26 15:41:47;;;;;;;;;;;;;;;;;;5031346;28;20394;-87
2024/01/26 15:44:13;;;;;;;;;;;;;;;;;;5030448;28;20315;-86
2024/01/26 15:46:39;;;;;;;;;;;;;;;;;;5027391;28;19963;-87
2024/01/26 15:49:05;;;;;;;;;;;;;;;;;;5024985;28;19921;-87
2024/01/26 15:51:31;;;;;;;;;;;;;;;;;;5028165;28;19988;-86
2024/01/26 15:53:58;;;;;;;;;;;;;;;;;;5029492;28;19917;-86
2024/01/26 15:56:24;;;;;;;;;;;;;;;;;;5028811;28;20371;-85
2024/01/26 15:58:50;;;;;;;;;;;;;;;;;;5020964;28;19928;-87
2024/01/26 16:01:16;;;;;;;;;;;;;;;;;;5025694;28;19913;-88
2024/01/26 16:03:42;;;;;;;;;;;;;;;;;;5030206;28;20586;-87
2024/01/26 16:06:08;;;;;;;;;;;;;;;;;;5028477;28;19921;-86
2024/01/26 16:08:34;;;;;;;;;;;;;;;;;;5030316;28;20379;-87
2024/01/26 16:11:00;;;;;;;;;;;;;;;;;;5029938;28;20355;-87
2024/01/26 16:13:26;;;;;;;;;;;;;;;;;;5028872;28;20318;-87
2024/01/26 16:15:52;;;;;;;;;;;;;;;;;;5029372;28;19928;-86
2024/01/26 16:18:18;;;;;;;;;;;;;;;;;;5021564;28;19920;-88
2024/01/26 16:20:43;;;;;;;;;;;;;;;;;;5026653;28;20376;-90
2024/01/26 16:23:09;;;;;;;;;;;;;;;;;;5028394;28;19920;-88
2024/01/26 16:25:35;;;;;;;;;;;;;;;;;;5026608;28;19918;-87
2024/01/26 16:28:01;;;;;;;;;;;;;;;;;;5028116;28;19924;-88
2024/01/26 16:30:27;;;;;;;;;;;;;;;;;;5026470;28;19917;-90
2024/01/26 16:32:53;;;;;;;;;;;;;;;;;;5028610;28;19917;-89
2024/01/26 16:35:19;;;;;;;;;;;;;;;;;;5027774;28;19920;-88
2024/01/26 16:37:45;;;;;;;;;;;;;;;;;;5027797;28;20265;-88
2024/01/26 16:40:10;;;;;;;;;;;;;;;;;;5028528;28;19925;-90